sensor_id;sensor_type;location;lat;lon;timestamp;P1;durP1;ratioP1;P2;durP2;ratioP2
13455;SDS011;6800;50.940;6.940;2022-11-20T00:00:12;17.97;;;16.07;;
13455;SDS011;6800;50.940;6.940;2022-11-20T00:04:13;16.87;;;15.10;;
13455;SDS011;6800;50.940;6.940;2022-11-20T00:08:13;19.87;;;17.13;;
13455;SDS011;6800;50.940;6.940;2022-11-20T00:12:13;20.23;;;17.73;;
13455;SDS011;6800;50.940;6.940;2022-11-20T00:16:15;18.67;;;16.53;;
13455;SDS011;6800;50.940;6.940;2022-11-20T00:20:16;21.67;;;18.27;;
13455;SDS011;6800;50.940;6.940;2022-11-20T00:24:17;19.17;;;16.60;;
13455;SDS011;6800;50.940;6.940;2022-11-20T00:28:17;18.13;;;16.10;;
13455;SDS011;6800;50.940;6.940;2022-11-20T00:32:17;18.27;;;15.73;;
13455;SDS011;6800;50.940;6.940;2022-11-20T00:36:18;18.33;;;16.35;;
13455;SDS011;6800;50.940;6.940;2022-11-20T00:40:20;17.90;;;15.67;;
13455;SDS011;6800;50.940;6.940;2022-11-20T00:44:20;18.13;;;16.30;;
13455;SDS011;6800;50.940;6.940;2022-11-20T00:48:21;19.33;;;17.23;;
13455;SDS011;6800;50.940;6.940;2022-11-20T00:52:22;18.40;;;16.40;;
13455;SDS011;6800;50.940;6.940;2022-11-20T00:56:22;17.25;;;15.13;;
13455;SDS011;6800;50.940;6.940;2022-11-20T01:00:22;18.30;;;15.77;;
13455;SDS011;6800;50.940;6.940;2022-11-20T01:04:23;20.07;;;17.10;;
13455;SDS011;6800;50.940;6.940;2022-11-20T01:08:23;17.73;;;15.83;;
13455;SDS011;6800;50.940;6.940;2022-11-20T01:12:23;18.80;;;16.80;;
13455;SDS011;6800;50.940;6.940;2022-11-20T01:16:28;18.33;;;16.10;;
13455;SDS011;6800;50.940;6.940;2022-11-20T01:20:34;19.23;;;16.83;;
13455;SDS011;6800;50.940;6.940;2022-11-20T01:24:35;17.43;;;14.77;;
13455;SDS011;6800;50.940;6.940;2022-11-20T01:28:36;19.83;;;17.33;;
13455;SDS011;6800;50.940;6.940;2022-11-20T01:32:36;18.70;;;16.13;;
13455;SDS011;6800;50.940;6.940;2022-11-20T01:36:37;19.35;;;17.30;;
13455;SDS011;6800;50.940;6.940;2022-11-20T01:40:38;17.67;;;15.67;;
13455;SDS011;6800;50.940;6.940;2022-11-20T01:48:52;17.07;;;15.37;;
13455;SDS011;6800;50.940;6.940;2022-11-20T01:52:59;18.30;;;15.77;;
13455;SDS011;6800;50.940;6.940;2022-11-20T01:57:04;18.10;;;16.17;;
13455;SDS011;6800;50.940;6.940;2022-11-20T02:01:08;19.67;;;17.57;;
13455;SDS011;6800;50.940;6.940;2022-11-20T02:05:12;21.43;;;17.60;;
13455;SDS011;6800;50.940;6.940;2022-11-20T02:09:22;22.40;;;17.90;;
13455;SDS011;6800;50.940;6.940;2022-11-20T02:13:22;19.50;;;17.13;;
13455;SDS011;6800;50.940;6.940;2022-11-20T02:17:41;18.70;;;16.63;;
13455;SDS011;6800;50.940;6.940;2022-11-20T02:21:49;18.80;;;16.33;;
13455;SDS011;6800;50.940;6.940;2022-11-20T02:26:00;19.30;;;16.67;;
13455;SDS011;6800;50.940;6.940;2022-11-20T02:30:05;21.67;;;17.77;;
13455;SDS011;6800;50.940;6.940;2022-11-20T02:34:10;19.63;;;17.10;;
13455;SDS011;6800;50.940;6.940;2022-11-20T02:38:11;19.57;;;17.43;;
13455;SDS011;6800;50.940;6.940;2022-11-20T02:42:12;19.77;;;17.63;;
13455;SDS011;6800;50.940;6.940;2022-11-20T02:46:13;16.90;;;15.10;;
13455;SDS011;6800;50.940;6.940;2022-11-20T02:50:13;18.47;;;16.50;;
13455;SDS011;6800;50.940;6.940;2022-11-20T02:54:16;17.20;;;14.93;;
13455;SDS011;6800;50.940;6.940;2022-11-20T02:58:16;18.60;;;16.03;;
13455;SDS011;6800;50.940;6.940;2022-11-20T03:02:16;17.75;;;15.90;;
13455;SDS011;6800;50.940;6.940;2022-11-20T03:06:17;17.40;;;15.43;;
13455;SDS011;6800;50.940;6.940;2022-11-20T03:10:17;19.70;;;16.97;;
13455;SDS011;6800;50.940;6.940;2022-11-20T03:14:17;19.80;;;17.70;;
13455;SDS011;6800;50.940;6.940;2022-11-20T03:18:18;16.80;;;15.00;;
13455;SDS011;6800;50.940;6.940;2022-11-20T03:22:18;20.23;;;15.67;;
13455;SDS011;6800;50.940;6.940;2022-11-20T03:26:19;19.13;;;16.40;;
13455;SDS011;6800;50.940;6.940;2022-11-20T03:30:21;19.33;;;16.60;;
13455;SDS011;6800;50.940;6.940;2022-11-20T03:34:22;18.80;;;16.43;;
13455;SDS011;6800;50.940;6.940;2022-11-20T03:38:23;20.07;;;17.20;;
13455;SDS011;6800;50.940;6.940;2022-11-20T03:42:23;18.47;;;16.37;;
13455;SDS011;6800;50.940;6.940;2022-11-20T03:46:42;18.70;;;16.30;;
13455;SDS011;6800;50.940;6.940;2022-11-20T03:50:42;20.60;;;16.67;;
13455;SDS011;6800;50.940;6.940;2022-11-20T03:54:42;19.60;;;16.40;;
13455;SDS011;6800;50.940;6.940;2022-11-20T03:58:43;18.60;;;15.30;;
13455;SDS011;6800;50.940;6.940;2022-11-20T04:02:43;17.63;;;15.73;;
13455;SDS011;6800;50.940;6.940;2022-11-20T04:06:43;17.88;;;15.93;;
13455;SDS011;6800;50.940;6.940;2022-11-20T04:10:44;18.90;;;15.87;;
13455;SDS011;6800;50.940;6.940;2022-11-20T04:14:44;18.77;;;16.58;;
13455;SDS011;6800;50.940;6.940;2022-11-20T04:18:44;19.77;;;16.23;;
13455;SDS011;6800;50.940;6.940;2022-11-20T04:22:45;19.17;;;16.17;;
13455;SDS011;6800;50.940;6.940;2022-11-20T04:26:45;18.23;;;15.77;;
13455;SDS011;6800;50.940;6.940;2022-11-20T04:30:45;19.60;;;17.03;;
13455;SDS011;6800;50.940;6.940;2022-11-20T04:34:46;19.53;;;17.07;;
13455;SDS011;6800;50.940;6.940;2022-11-20T04:38:46;21.63;;;17.70;;
13455;SDS011;6800;50.940;6.940;2022-11-20T04:42:50;21.43;;;17.00;;
13455;SDS011;6800;50.940;6.940;2022-11-20T04:46:50;20.65;;;17.75;;
13455;SDS011;6800;50.940;6.940;2022-11-20T04:50:51;20.52;;;16.92;;
13455;SDS011;6800;50.940;6.940;2022-11-20T04:54:51;20.20;;;16.87;;
13455;SDS011;6800;50.940;6.940;2022-11-20T04:58:54;21.13;;;18.23;;
13455;SDS011;6800;50.940;6.940;2022-11-20T05:02:54;19.23;;;16.60;;
13455;SDS011;6800;50.940;6.940;2022-11-20T05:06:55;21.30;;;17.67;;
13455;SDS011;6800;50.940;6.940;2022-11-20T05:11:02;20.15;;;17.80;;
13455;SDS011;6800;50.940;6.940;2022-11-20T05:15:07;21.17;;;17.67;;
13455;SDS011;6800;50.940;6.940;2022-11-20T05:19:07;22.23;;;17.57;;
13455;SDS011;6800;50.940;6.940;2022-11-20T05:23:08;22.47;;;18.70;;
13455;SDS011;6800;50.940;6.940;2022-11-20T05:27:08;20.65;;;17.63;;
13455;SDS011;6800;50.940;6.940;2022-11-20T05:31:09;21.30;;;18.37;;
13455;SDS011;6800;50.940;6.940;2022-11-20T05:35:14;22.47;;;17.93;;
13455;SDS011;6800;50.940;6.940;2022-11-20T05:39:14;20.37;;;17.47;;
13455;SDS011;6800;50.940;6.940;2022-11-20T05:43:14;20.50;;;18.30;;
13455;SDS011;6800;50.940;6.940;2022-11-20T05:47:14;20.63;;;17.70;;
13455;SDS011;6800;50.940;6.940;2022-11-20T05:51:16;20.13;;;16.55;;
13455;SDS011;6800;50.940;6.940;2022-11-20T05:55:17;19.97;;;17.43;;
13455;SDS011;6800;50.940;6.940;2022-11-20T05:59:17;20.37;;;17.73;;
13455;SDS011;6800;50.940;6.940;2022-11-20T06:03:17;20.80;;;16.60;;
13455;SDS011;6800;50.940;6.940;2022-11-20T06:07:18;20.07;;;17.20;;
13455;SDS011;6800;50.940;6.940;2022-11-20T06:11:18;20.93;;;17.47;;
13455;SDS011;6800;50.940;6.940;2022-11-20T06:15:18;26.47;;;18.50;;
13455;SDS011;6800;50.940;6.940;2022-11-20T06:19:19;22.67;;;18.50;;
13455;SDS011;6800;50.940;6.940;2022-11-20T06:23:19;21.83;;;18.10;;
13455;SDS011;6800;50.940;6.940;2022-11-20T06:27:19;22.77;;;18.70;;
13455;SDS011;6800;50.940;6.940;2022-11-20T06:31:20;22.33;;;18.90;;
13455;SDS011;6800;50.940;6.940;2022-11-20T06:35:23;23.13;;;18.93;;
13455;SDS011;6800;50.940;6.940;2022-11-20T06:39:26;26.33;;;20.17;;
13455;SDS011;6800;50.940;6.940;2022-11-20T06:43:28;24.10;;;19.60;;
13455;SDS011;6800;50.940;6.940;2022-11-20T06:47:28;22.50;;;19.57;;
13455;SDS011;6800;50.940;6.940;2022-11-20T06:51:28;20.40;;;17.40;;
13455;SDS011;6800;50.940;6.940;2022-11-20T06:55:29;22.63;;;18.05;;
13455;SDS011;6800;50.940;6.940;2022-11-20T06:59:30;22.10;;;18.07;;
13455;SDS011;6800;50.940;6.940;2022-11-20T07:03:30;23.17;;;18.83;;
13455;SDS011;6800;50.940;6.940;2022-11-20T07:07:30;22.57;;;18.07;;
13455;SDS011;6800;50.940;6.940;2022-11-20T07:11:31;23.23;;;18.33;;
13455;SDS011;6800;50.940;6.940;2022-11-20T07:15:31;21.03;;;17.53;;
13455;SDS011;6800;50.940;6.940;2022-11-20T07:19:31;20.67;;;17.33;;
13455;SDS011;6800;50.940;6.940;2022-11-20T07:23:31;20.13;;;16.57;;
13455;SDS011;6800;50.940;6.940;2022-11-20T07:27:32;19.03;;;16.20;;
13455;SDS011;6800;50.940;6.940;2022-11-20T07:31:32;20.13;;;15.47;;
13455;SDS011;6800;50.940;6.940;2022-11-20T07:35:32;19.27;;;16.42;;
13455;SDS011;6800;50.940;6.940;2022-11-20T07:39:33;18.67;;;16.50;;
13455;SDS011;6800;50.940;6.940;2022-11-20T07:43:33;18.27;;;15.70;;
13455;SDS011;6800;50.940;6.940;2022-11-20T07:47:36;19.27;;;15.97;;
13455;SDS011;6800;50.940;6.940;2022-11-20T07:51:36;17.03;;;15.07;;
13455;SDS011;6800;50.940;6.940;2022-11-20T07:55:36;19.88;;;16.55;;
13455;SDS011;6800;50.940;6.940;2022-11-20T07:59:36;18.97;;;16.07;;
13455;SDS011;6800;50.940;6.940;2022-11-20T08:03:38;17.93;;;14.77;;
13455;SDS011;6800;50.940;6.940;2022-11-20T08:07:39;17.50;;;15.13;;
13455;SDS011;6800;50.940;6.940;2022-11-20T08:11:40;17.93;;;15.73;;
13455;SDS011;6800;50.940;6.940;2022-11-20T08:15:59;18.20;;;14.53;;
13455;SDS011;6800;50.940;6.940;2022-11-20T08:19:59;20.00;;;15.57;;
13455;SDS011;6800;50.940;6.940;2022-11-20T08:23:59;18.05;;;15.77;;
13455;SDS011;6800;50.940;6.940;2022-11-20T08:28:00;22.90;;;17.20;;
13455;SDS011;6800;50.940;6.940;2022-11-20T08:32:02;19.83;;;17.57;;
13455;SDS011;6800;50.940;6.940;2022-11-20T08:36:03;19.93;;;17.63;;
13455;SDS011;6800;50.940;6.940;2022-11-20T08:40:05;21.43;;;17.93;;
13455;SDS011;6800;50.940;6.940;2022-11-20T08:44:06;21.20;;;18.43;;
13455;SDS011;6800;50.940;6.940;2022-11-20T08:48:07;21.13;;;18.03;;
13455;SDS011;6800;50.940;6.940;2022-11-20T08:52:07;21.33;;;18.00;;
13455;SDS011;6800;50.940;6.940;2022-11-20T08:56:08;22.98;;;18.23;;
13455;SDS011;6800;50.940;6.940;2022-11-20T09:00:09;22.67;;;18.53;;
13455;SDS011;6800;50.940;6.940;2022-11-20T09:04:10;22.87;;;18.67;;
13455;SDS011;6800;50.940;6.940;2022-11-20T09:08:11;22.73;;;19.13;;
13455;SDS011;6800;50.940;6.940;2022-11-20T09:12:12;24.10;;;19.07;;
13455;SDS011;6800;50.940;6.940;2022-11-20T09:16:12;23.73;;;19.07;;
13455;SDS011;6800;50.940;6.940;2022-11-20T09:20:13;21.83;;;17.07;;
13455;SDS011;6800;50.940;6.940;2022-11-20T09:24:14;21.47;;;18.90;;
13455;SDS011;6800;50.940;6.940;2022-11-20T09:28:14;22.08;;;17.92;;
13455;SDS011;6800;50.940;6.940;2022-11-20T09:32:14;23.30;;;18.10;;
13455;SDS011;6800;50.940;6.940;2022-11-20T09:36:14;23.47;;;19.60;;
13455;SDS011;6800;50.940;6.940;2022-11-20T09:40:20;19.97;;;17.77;;
13455;SDS011;6800;50.940;6.940;2022-11-20T09:49:06;23.37;;;18.33;;
13455;SDS011;6800;50.940;6.940;2022-11-20T09:53:29;22.20;;;17.60;;
13455;SDS011;6800;50.940;6.940;2022-11-20T09:57:36;20.40;;;18.20;;
13455;SDS011;6800;50.940;6.940;2022-11-20T10:01:40;21.57;;;18.37;;
13455;SDS011;6800;50.940;6.940;2022-11-20T10:05:47;20.13;;;16.63;;
13455;SDS011;6800;50.940;6.940;2022-11-20T10:09:53;20.43;;;16.80;;
13455;SDS011;6800;50.940;6.940;2022-11-20T10:18:33;23.43;;;18.73;;
13455;SDS011;6800;50.940;6.940;2022-11-20T10:22:47;22.27;;;18.90;;
13455;SDS011;6800;50.940;6.940;2022-11-20T10:31:18;23.13;;;17.83;;
13455;SDS011;6800;50.940;6.940;2022-11-20T10:35:37;25.53;;;20.83;;
13455;SDS011;6800;50.940;6.940;2022-11-20T10:43:49;24.20;;;20.33;;
13455;SDS011;6800;50.940;6.940;2022-11-20T10:48:00;23.80;;;20.77;;
13455;SDS011;6800;50.940;6.940;2022-11-20T10:52:11;26.57;;;20.67;;
13455;SDS011;6800;50.940;6.940;2022-11-20T10:56:30;24.43;;;20.43;;
13455;SDS011;6800;50.940;6.940;2022-11-20T11:00:42;25.00;;;21.07;;
13455;SDS011;6800;50.940;6.940;2022-11-20T11:04:52;22.83;;;19.27;;
13455;SDS011;6800;50.940;6.940;2022-11-20T11:08:53;25.27;;;20.97;;
13455;SDS011;6800;50.940;6.940;2022-11-20T11:12:58;26.33;;;20.27;;
13455;SDS011;6800;50.940;6.940;2022-11-20T11:16:58;21.75;;;18.95;;
13455;SDS011;6800;50.940;6.940;2022-11-20T11:21:01;26.60;;;20.43;;
13455;SDS011;6800;50.940;6.940;2022-11-20T11:25:03;25.80;;;20.17;;
13455;SDS011;6800;50.940;6.940;2022-11-20T11:29:03;24.70;;;19.43;;
13455;SDS011;6800;50.940;6.940;2022-11-20T11:33:05;23.37;;;19.93;;
13455;SDS011;6800;50.940;6.940;2022-11-20T11:37:18;23.13;;;19.77;;
13455;SDS011;6800;50.940;6.940;2022-11-20T11:41:23;22.93;;;18.93;;
13455;SDS011;6800;50.940;6.940;2022-11-20T11:45:26;22.27;;;19.10;;
13455;SDS011;6800;50.940;6.940;2022-11-20T11:49:27;23.10;;;18.90;;
13455;SDS011;6800;50.940;6.940;2022-11-20T11:53:27;24.63;;;20.27;;
13455;SDS011;6800;50.940;6.940;2022-11-20T12:01:51;30.10;;;22.20;;
13455;SDS011;6800;50.940;6.940;2022-11-20T12:05:58;24.93;;;20.63;;
13455;SDS011;6800;50.940;6.940;2022-11-20T12:10:02;24.53;;;19.63;;
13455;SDS011;6800;50.940;6.940;2022-11-20T12:14:11;25.63;;;19.70;;
13455;SDS011;6800;50.940;6.940;2022-11-20T12:18:19;26.47;;;20.80;;
13455;SDS011;6800;50.940;6.940;2022-11-20T12:22:25;25.40;;;21.13;;
13455;SDS011;6800;50.940;6.940;2022-11-20T12:27:05;26.43;;;20.87;;
13455;SDS011;6800;50.940;6.940;2022-11-20T12:40:00;24.77;;;19.70;;
13455;SDS011;6800;50.940;6.940;2022-11-20T12:48:59;23.80;;;19.40;;
13455;SDS011;6800;50.940;6.940;2022-11-20T12:53:04;29.43;;;21.57;;
13455;SDS011;6800;50.940;6.940;2022-11-20T14:26:17;24.50;;;20.13;;
13455;SDS011;6800;50.940;6.940;2022-11-20T14:30:24;22.90;;;17.93;;
13455;SDS011;6800;50.940;6.940;2022-11-20T14:34:27;19.67;;;17.27;;
13455;SDS011;6800;50.940;6.940;2022-11-20T14:38:28;21.83;;;18.30;;
13455;SDS011;6800;50.940;6.940;2022-11-20T14:42:32;21.93;;;17.27;;
13455;SDS011;6800;50.940;6.940;2022-11-20T14:46:33;20.37;;;17.20;;
13455;SDS011;6800;50.940;6.940;2022-11-20T14:50:33;19.80;;;16.30;;
13455;SDS011;6800;50.940;6.940;2022-11-20T14:54:34;20.03;;;16.53;;
13455;SDS011;6800;50.940;6.940;2022-11-20T14:58:43;21.60;;;17.47;;
13455;SDS011;6800;50.940;6.940;2022-11-20T15:02:45;22.23;;;18.43;;
13455;SDS011;6800;50.940;6.940;2022-11-20T15:06:51;22.13;;;18.43;;
13455;SDS011;6800;50.940;6.940;2022-11-20T15:10:52;28.17;;;21.53;;
13455;SDS011;6800;50.940;6.940;2022-11-20T15:14:54;22.87;;;19.10;;
13455;SDS011;6800;50.940;6.940;2022-11-20T15:18:55;22.73;;;17.73;;
13455;SDS011;6800;50.940;6.940;2022-11-20T15:22:55;23.20;;;18.90;;
13455;SDS011;6800;50.940;6.940;2022-11-20T15:26:55;25.97;;;21.23;;
13455;SDS011;6800;50.940;6.940;2022-11-20T15:30:55;28.13;;;21.00;;
13455;SDS011;6800;50.940;6.940;2022-11-20T15:34:56;30.53;;;21.37;;
13455;SDS011;6800;50.940;6.940;2022-11-20T15:38:56;33.33;;;22.77;;
13455;SDS011;6800;50.940;6.940;2022-11-20T15:42:56;35.80;;;27.27;;
13455;SDS011;6800;50.940;6.940;2022-11-20T15:47:03;34.30;;;23.83;;
13455;SDS011;6800;50.940;6.940;2022-11-20T15:51:04;32.57;;;22.33;;
13455;SDS011;6800;50.940;6.940;2022-11-20T15:55:12;32.93;;;23.70;;
13455;SDS011;6800;50.940;6.940;2022-11-20T15:59:13;32.47;;;21.80;;
13455;SDS011;6800;50.940;6.940;2022-11-20T16:03:15;29.73;;;19.90;;
13455;SDS011;6800;50.940;6.940;2022-11-20T16:07:16;31.00;;;20.27;;
13455;SDS011;6800;50.940;6.940;2022-11-20T16:11:17;33.60;;;21.47;;
13455;SDS011;6800;50.940;6.940;2022-11-20T16:15:17;28.37;;;19.60;;
13455;SDS011;6800;50.940;6.940;2022-11-20T16:19:37;26.70;;;19.10;;
13455;SDS011;6800;50.940;6.940;2022-11-20T16:23:37;25.13;;;18.30;;
13455;SDS011;6800;50.940;6.940;2022-11-20T16:27:37;25.23;;;17.97;;
13455;SDS011;6800;50.940;6.940;2022-11-20T16:31:38;30.07;;;18.70;;
13455;SDS011;6800;50.940;6.940;2022-11-20T16:35:39;29.70;;;19.93;;
13455;SDS011;6800;50.940;6.940;2022-11-20T16:39:39;27.30;;;18.97;;
13455;SDS011;6800;50.940;6.940;2022-11-20T16:43:49;25.77;;;18.38;;
13455;SDS011;6800;50.940;6.940;2022-11-20T16:47:51;23.93;;;16.83;;
13455;SDS011;6800;50.940;6.940;2022-11-20T16:51:52;23.30;;;17.17;;
13455;SDS011;6800;50.940;6.940;2022-11-20T16:55:52;21.02;;;16.05;;
13455;SDS011;6800;50.940;6.940;2022-11-20T16:59:52;20.00;;;14.20;;
13455;SDS011;6800;50.940;6.940;2022-11-20T17:03:56;13.77;;;10.83;;
13455;SDS011;6800;50.940;6.940;2022-11-20T17:07:58;14.67;;;10.43;;
13455;SDS011;6800;50.940;6.940;2022-11-20T17:11:59;14.80;;;11.00;;
13455;SDS011;6800;50.940;6.940;2022-11-20T17:16:02;13.33;;;9.83;;
13455;SDS011;6800;50.940;6.940;2022-11-20T17:20:04;12.27;;;10.23;;
13455;SDS011;6800;50.940;6.940;2022-11-20T17:24:06;12.63;;;9.57;;
13455;SDS011;6800;50.940;6.940;2022-11-20T17:28:08;14.63;;;9.47;;
13455;SDS011;6800;50.940;6.940;2022-11-20T17:32:09;15.07;;;10.07;;
13455;SDS011;6800;50.940;6.940;2022-11-20T17:36:10;13.13;;;10.13;;
13455;SDS011;6800;50.940;6.940;2022-11-20T17:40:12;12.57;;;10.80;;
13455;SDS011;6800;50.940;6.940;2022-11-20T17:44:13;13.93;;;11.23;;
13455;SDS011;6800;50.940;6.940;2022-11-20T17:48:13;14.57;;;10.83;;
13455;SDS011;6800;50.940;6.940;2022-11-20T17:52:13;16.75;;;11.93;;
13455;SDS011;6800;50.940;6.940;2022-11-20T17:56:13;14.85;;;13.10;;
13455;SDS011;6800;50.940;6.940;2022-11-20T18:00:32;17.20;;;12.67;;
13455;SDS011;6800;50.940;6.940;2022-11-20T18:04:33;15.10;;;13.00;;
13455;SDS011;6800;50.940;6.940;2022-11-20T18:08:33;14.82;;;13.23;;
13455;SDS011;6800;50.940;6.940;2022-11-20T18:12:33;15.83;;;13.87;;
13455;SDS011;6800;50.940;6.940;2022-11-20T18:16:35;18.80;;;15.43;;
13455;SDS011;6800;50.940;6.940;2022-11-20T18:20:37;21.13;;;16.47;;
13455;SDS011;6800;50.940;6.940;2022-11-20T18:24:38;19.00;;;16.52;;
13455;SDS011;6800;50.940;6.940;2022-11-20T18:28:38;17.07;;;15.30;;
13455;SDS011;6800;50.940;6.940;2022-11-20T18:32:38;18.13;;;14.88;;
13455;SDS011;6800;50.940;6.940;2022-11-20T18:36:39;14.90;;;12.93;;
13455;SDS011;6800;50.940;6.940;2022-11-20T18:40:41;12.13;;;10.27;;
13455;SDS011;6800;50.940;6.940;2022-11-20T18:44:41;13.40;;;10.73;;
13455;SDS011;6800;50.940;6.940;2022-11-20T18:48:50;12.93;;;9.57;;
13455;SDS011;6800;50.940;6.940;2022-11-20T18:52:50;14.43;;;12.10;;
13455;SDS011;6800;50.940;6.940;2022-11-20T18:56:51;11.60;;;10.40;;
13455;SDS011;6800;50.940;6.940;2022-11-20T19:00:51;13.77;;;11.47;;
13455;SDS011;6800;50.940;6.940;2022-11-20T19:04:51;15.17;;;11.77;;
13455;SDS011;6800;50.940;6.940;2022-11-20T19:08:52;15.93;;;12.00;;
13455;SDS011;6800;50.940;6.940;2022-11-20T19:12:52;15.93;;;11.23;;
13455;SDS011;6800;50.940;6.940;2022-11-20T19:16:52;15.00;;;9.03;;
13455;SDS011;6800;50.940;6.940;2022-11-20T19:20:53;12.03;;;8.80;;
13455;SDS011;6800;50.940;6.940;2022-11-20T19:24:53;13.05;;;9.13;;
13455;SDS011;6800;50.940;6.940;2022-11-20T19:28:53;16.07;;;9.27;;
13455;SDS011;6800;50.940;6.940;2022-11-20T19:32:54;15.67;;;8.53;;
13455;SDS011;6800;50.940;6.940;2022-11-20T19:36:56;21.63;;;8.33;;
13455;SDS011;6800;50.940;6.940;2022-11-20T19:40:59;21.17;;;7.97;;
13455;SDS011;6800;50.940;6.940;2022-11-20T19:44:59;18.90;;;8.83;;
13455;SDS011;6800;50.940;6.940;2022-11-20T19:48:59;17.13;;;8.10;;
13455;SDS011;6800;50.940;6.940;2022-11-20T19:53:00;18.23;;;8.30;;
13455;SDS011;6800;50.940;6.940;2022-11-20T19:57:00;20.90;;;8.07;;
13455;SDS011;6800;50.940;6.940;2022-11-20T20:01:08;18.17;;;8.07;;
13455;SDS011;6800;50.940;6.940;2022-11-20T20:05:10;18.07;;;7.53;;
13455;SDS011;6800;50.940;6.940;2022-11-20T20:09:11;18.17;;;7.63;;
13455;SDS011;6800;50.940;6.940;2022-11-20T20:13:12;17.13;;;7.57;;
13455;SDS011;6800;50.940;6.940;2022-11-20T20:17:12;20.27;;;8.60;;
13455;SDS011;6800;50.940;6.940;2022-11-20T20:21:13;19.53;;;6.93;;
13455;SDS011;6800;50.940;6.940;2022-11-20T20:25:15;15.20;;;6.30;;
13455;SDS011;6800;50.940;6.940;2022-11-20T20:29:16;18.57;;;6.53;;
13455;SDS011;6800;50.940;6.940;2022-11-20T20:33:19;17.77;;;6.17;;
13455;SDS011;6800;50.940;6.940;2022-11-20T20:37:20;12.27;;;6.37;;
13455;SDS011;6800;50.940;6.940;2022-11-20T20:41:21;14.70;;;5.50;;
13455;SDS011;6800;50.940;6.940;2022-11-20T20:45:22;14.93;;;5.43;;
13455;SDS011;6800;50.940;6.940;2022-11-20T20:49:22;16.13;;;6.30;;
13455;SDS011;6800;50.940;6.940;2022-11-20T20:53:22;11.37;;;5.33;;
13455;SDS011;6800;50.940;6.940;2022-11-20T20:57:23;14.23;;;4.37;;
13455;SDS011;6800;50.940;6.940;2022-11-20T21:01:24;9.67;;;4.60;;
13455;SDS011;6800;50.940;6.940;2022-11-20T21:05:27;13.67;;;4.17;;
13455;SDS011;6800;50.940;6.940;2022-11-20T21:09:27;12.13;;;3.47;;
13455;SDS011;6800;50.940;6.940;2022-11-20T21:13:28;11.02;;;4.03;;
13455;SDS011;6800;50.940;6.940;2022-11-20T21:17:29;14.83;;;5.03;;
13455;SDS011;6800;50.940;6.940;2022-11-20T21:21:29;14.23;;;4.00;;
13455;SDS011;6800;50.940;6.940;2022-11-20T21:25:48;9.17;;;3.13;;
13455;SDS011;6800;50.940;6.940;2022-11-20T21:29:48;10.13;;;3.80;;
13455;SDS011;6800;50.940;6.940;2022-11-20T21:33:49;10.02;;;3.65;;
13455;SDS011;6800;50.940;6.940;2022-11-20T21:37:51;9.07;;;3.73;;
13455;SDS011;6800;50.940;6.940;2022-11-20T21:41:51;11.73;;;3.53;;
13455;SDS011;6800;50.940;6.940;2022-11-20T21:45:51;8.83;;;3.50;;
13455;SDS011;6800;50.940;6.940;2022-11-20T21:49:52;13.23;;;3.97;;
13455;SDS011;6800;50.940;6.940;2022-11-20T21:53:53;12.65;;;4.78;;
13455;SDS011;6800;50.940;6.940;2022-11-20T21:57:54;12.67;;;4.43;;
13455;SDS011;6800;50.940;6.940;2022-11-20T22:01:54;13.73;;;4.13;;
13455;SDS011;6800;50.940;6.940;2022-11-20T22:05:55;10.67;;;3.70;;
13455;SDS011;6800;50.940;6.940;2022-11-20T22:09:56;15.37;;;4.50;;
13455;SDS011;6800;50.940;6.940;2022-11-20T22:13:57;9.17;;;4.50;;
13455;SDS011;6800;50.940;6.940;2022-11-20T22:18:16;11.80;;;4.37;;
13455;SDS011;6800;50.940;6.940;2022-11-20T22:22:17;14.57;;;5.30;;
13455;SDS011;6800;50.940;6.940;2022-11-20T22:26:18;16.50;;;4.83;;
13455;SDS011;6800;50.940;6.940;2022-11-20T22:30:23;17.97;;;5.60;;
13455;SDS011;6800;50.940;6.940;2022-11-20T22:34:24;16.70;;;5.33;;
13455;SDS011;6800;50.940;6.940;2022-11-20T22:38:24;18.90;;;5.82;;
13455;SDS011;6800;50.940;6.940;2022-11-20T22:42:24;17.47;;;6.23;;
13455;SDS011;6800;50.940;6.940;2022-11-20T22:46:25;17.40;;;5.67;;
13455;SDS011;6800;50.940;6.940;2022-11-20T22:50:27;20.60;;;6.13;;
13455;SDS011;6800;50.940;6.940;2022-11-20T22:54:27;16.40;;;5.97;;
13455;SDS011;6800;50.940;6.940;2022-11-20T22:58:28;17.37;;;5.90;;
13455;SDS011;6800;50.940;6.940;2022-11-20T23:02:29;16.97;;;5.87;;
13455;SDS011;6800;50.940;6.940;2022-11-20T23:06:29;19.57;;;5.90;;
13455;SDS011;6800;50.940;6.940;2022-11-20T23:10:33;17.97;;;6.67;;
13455;SDS011;6800;50.940;6.940;2022-11-20T23:14:33;17.37;;;6.10;;
13455;SDS011;6800;50.940;6.940;2022-11-20T23:18:33;22.63;;;6.50;;
13455;SDS011;6800;50.940;6.940;2022-11-20T23:22:34;21.00;;;6.17;;
13455;SDS011;6800;50.940;6.940;2022-11-20T23:26:35;21.33;;;5.97;;
13455;SDS011;6800;50.940;6.940;2022-11-20T23:30:38;22.50;;;6.87;;
13455;SDS011;6800;50.940;6.940;2022-11-20T23:34:38;26.40;;;7.37;;
13455;SDS011;6800;50.940;6.940;2022-11-20T23:38:39;16.33;;;6.57;;
13455;SDS011;6800;50.940;6.940;2022-11-20T23:42:39;17.50;;;6.37;;
13455;SDS011;6800;50.940;6.940;2022-11-20T23:46:59;25.60;;;7.20;;
13455;SDS011;6800;50.940;6.940;2022-11-20T23:51:00;18.13;;;6.57;;
13455;SDS011;6800;50.940;6.940;2022-11-20T23:55:00;17.73;;;7.90;;
13455;SDS011;6800;50.940;6.940;2022-11-20T23:59:04;20.43;;;6.03;;
